createdAt,value
2018-04-12T00:00:34.542Z,28.20
2018-04-12T00:01:34.567Z,28.60
2018-04-12T00:02:34.584Z,27.50
2018-04-12T00:03:34.607Z,28.50
2018-04-12T00:04:34.627Z,28.10
2018-04-12T00:05:34.648Z,29.00
2018-04-12T00:06:34.658Z,29.20
2018-04-12T00:07:34.680Z,28.60
2018-04-12T00:08:34.701Z,28.30
2018-04-12T00:09:34.972Z,27.90
2018-04-12T00:10:34.754Z,28.20
2018-04-12T00:11:34.753Z,29.20
2018-04-12T00:12:34.774Z,28.70
2018-04-12T00:13:34.794Z,30.00
2018-04-12T00:14:34.815Z,28.80
2018-04-12T00:15:34.836Z,29.50
2018-04-12T00:16:34.859Z,28.10
2018-04-12T00:17:34.881Z,28.10
2018-04-12T00:18:34.889Z,29.20
2018-04-12T00:19:35.161Z,28.70
2018-04-12T00:20:34.949Z,30.10
2018-04-12T00:21:34.954Z,27.70
2018-04-12T00:22:34.974Z,29.50
2018-04-12T00:23:34.983Z,28.30
2018-04-12T00:24:35.009Z,27.70
2018-04-12T00:25:35.026Z,29.10
2018-04-12T00:26:35.060Z,28.00
2018-04-12T00:27:35.068Z,28.70
2018-04-12T00:28:35.092Z,27.10
2018-04-12T00:29:35.099Z,28.50
2018-04-12T00:30:35.121Z,28.90
2018-04-12T00:31:35.144Z,28.80
2018-04-12T00:32:35.163Z,28.60
2018-04-12T00:33:35.185Z,28.70
2018-04-12T00:34:35.194Z,27.60
2018-04-12T00:35:35.219Z,27.80
2018-04-12T00:36:35.236Z,27.30
2018-04-12T00:37:35.257Z,27.20
2018-04-12T00:38:35.278Z,28.70
2018-04-12T00:39:35.314Z,27.90
2018-04-12T00:40:35.309Z,27.10
2018-04-12T00:41:35.331Z,28.50
2018-04-12T00:42:35.352Z,27.90
2018-04-12T00:43:35.374Z,28.40
2018-04-12T00:44:35.395Z,29.00
2018-04-12T00:45:35.416Z,29.40
2018-04-12T00:46:35.425Z,28.50
2018-04-12T00:47:35.445Z,27.70
2018-04-12T00:48:35.467Z,28.90
2018-04-12T00:49:35.490Z,28.80
2018-04-12T00:50:35.510Z,27.40
2018-04-12T00:51:35.520Z,29.40
2018-04-12T00:52:35.542Z,29.00
2018-04-12T00:53:35.563Z,28.50
2018-04-12T00:54:35.584Z,29.60
2018-04-12T00:55:35.605Z,28.10
2018-04-12T00:56:35.627Z,29.20
2018-04-12T00:57:35.635Z,28.50
2018-04-12T00:58:35.657Z,28.60
2018-04-12T00:59:35.678Z,29.10
2018-04-12T01:00:35.707Z,28.50
2018-04-12T01:01:35.721Z,29.30
2018-04-12T01:02:35.732Z,29.00
2018-04-12T01:03:35.753Z,30.50
2018-04-12T01:04:35.775Z,29.40
2018-04-12T01:05:35.797Z,30.30
2018-04-12T01:06:35.821Z,29.60
2018-04-12T01:07:35.839Z,30.50
2018-04-12T01:08:35.847Z,29.80
2018-04-12T01:09:35.869Z,30.70
2018-04-12T01:10:35.890Z,30.70
2018-04-12T01:11:35.925Z,30.60
2018-04-12T01:12:35.933Z,30.90
2018-04-12T01:13:35.943Z,30.40
2018-04-12T01:14:35.964Z,30.20
2018-04-12T01:15:35.986Z,30.30
2018-04-12T01:16:36.011Z,30.60
2018-04-12T01:17:36.029Z,31.50
2018-04-12T01:18:36.037Z,29.60
2018-04-12T01:19:36.057Z,29.20
2018-04-12T01:20:36.078Z,29.90
2018-04-12T01:21:36.102Z,30.20
2018-04-12T01:22:36.121Z,28.90
2018-04-12T01:23:36.132Z,30.40
2018-04-12T01:24:36.152Z,30.40
2018-04-12T01:25:36.175Z,31.00
2018-04-12T01:26:36.195Z,31.60
2018-04-12T01:27:36.221Z,30.70
2018-04-12T01:28:36.227Z,30.20
2018-04-12T01:29:36.246Z,31.60
2018-04-12T01:30:36.268Z,30.10
2018-04-12T01:31:36.289Z,30.10
2018-04-12T01:32:36.313Z,29.70
2018-04-12T01:33:36.331Z,30.10
2018-04-12T01:34:36.342Z,30.10
2018-04-12T01:35:36.364Z,28.70
2018-04-12T01:36:36.385Z,29.70
2018-04-12T01:37:36.405Z,30.80
2018-04-12T01:38:36.423Z,29.80
2018-04-12T01:39:36.436Z,29.50
2018-04-12T01:40:36.457Z,30.10
2018-04-12T01:41:36.478Z,30.50
2018-04-12T01:42:36.499Z,30.30
2018-04-12T01:43:36.521Z,31.30
2018-04-12T01:44:36.530Z,30.90
2018-04-12T01:45:36.551Z,30.80
2018-04-12T01:46:36.572Z,30.80
2018-04-12T01:47:36.594Z,29.70
2018-04-12T01:48:36.615Z,30.60
2018-04-12T01:49:36.623Z,30.40
2018-04-12T01:50:36.645Z,29.80
2018-04-12T01:51:36.667Z,29.70
2018-04-12T01:52:36.688Z,30.00
2018-04-12T01:53:36.708Z,31.00
2018-04-12T01:54:36.718Z,29.90
2018-04-12T01:55:36.740Z,29.80
2018-04-12T01:56:36.761Z,31.00
2018-04-12T01:57:36.784Z,29.30
2018-04-12T01:58:36.792Z,30.00
2018-04-12T01:59:36.812Z,31.00
2018-04-12T02:00:36.837Z,30.20
2018-04-12T02:01:36.855Z,30.40
2018-04-12T02:02:36.876Z,30.70
2018-04-12T02:03:36.898Z,32.10
2018-04-12T02:04:36.953Z,30.80
2018-04-12T02:05:36.929Z,30.00
2018-04-12T02:06:36.950Z,30.50
2018-04-12T02:07:36.973Z,30.30
2018-04-12T02:08:36.994Z,30.60
2018-04-12T02:09:37.001Z,30.60
2018-04-12T02:10:37.036Z,30.70
2018-04-12T02:11:37.044Z,30.70
2018-04-12T02:12:37.066Z,30.90
2018-04-12T02:13:37.087Z,30.90
2018-04-12T02:14:37.097Z,30.30
2018-04-12T02:15:37.119Z,31.10
2018-04-12T02:16:37.140Z,31.10
2018-04-12T02:17:37.162Z,31.20
2018-04-12T02:18:37.181Z,30.80
2018-04-12T02:19:37.191Z,31.20
2018-04-12T02:20:37.213Z,31.40
2018-04-12T02:21:37.234Z,30.90
2018-04-12T02:22:37.269Z,31.20
2018-04-12T02:23:37.266Z,31.40
2018-04-12T02:24:37.290Z,31.40
2018-04-12T02:25:37.308Z,30.80
2018-04-12T02:26:37.328Z,29.90
2018-04-12T02:27:37.350Z,30.80
2018-04-12T02:28:37.360Z,31.90
2018-04-12T02:29:37.380Z,31.40
2018-04-12T02:30:37.401Z,30.60
2018-04-12T02:31:37.423Z,30.20
2018-04-12T02:32:37.432Z,31.90
2018-04-12T02:33:37.455Z,32.30
2018-04-12T02:34:37.475Z,32.40
2018-04-12T02:35:37.496Z,32.60
2018-04-12T02:36:37.518Z,31.30
2018-04-12T02:37:37.531Z,31.90
2018-04-12T02:38:37.547Z,31.90
2018-04-12T02:39:37.568Z,32.60
2018-04-12T02:40:37.590Z,31.30
2018-04-12T02:41:37.611Z,30.90
2018-04-12T02:42:37.622Z,31.20
2018-04-12T02:43:37.646Z,31.60
2018-04-12T02:44:37.666Z,31.60
2018-04-12T02:45:37.686Z,31.60
2018-04-12T02:46:37.698Z,31.20
2018-04-12T02:47:37.715Z,31.10
2018-04-12T02:48:37.737Z,32.80
2018-04-12T02:49:37.758Z,32.40
2018-04-12T02:50:37.808Z,32.00
2018-04-12T02:51:37.789Z,32.10
2018-04-12T02:52:37.815Z,33.00
2018-04-12T02:53:37.832Z,32.40
2018-04-12T02:54:37.841Z,31.90
2018-04-12T02:55:37.863Z,32.60
2018-04-12T02:56:37.883Z,32.50
2018-04-12T02:57:37.909Z,32.50
2018-04-12T02:58:37.928Z,31.70
2018-04-12T02:59:37.936Z,32.50
2018-04-12T03:00:37.957Z,33.00
2018-04-12T03:01:37.982Z,31.80
2018-04-12T03:02:38.000Z,33.00
2018-04-12T03:03:38.009Z,32.00
2018-04-12T03:04:38.031Z,31.20
2018-04-12T03:05:38.053Z,32.10
2018-04-12T03:06:38.072Z,32.70
2018-04-12T03:07:38.082Z,32.60
2018-04-12T03:08:38.104Z,33.80
2018-04-12T03:09:38.125Z,32.10
2018-04-12T03:10:38.146Z,33.40
2018-04-12T03:11:38.155Z,33.20
2018-04-12T03:12:38.188Z,31.70
2018-04-12T03:13:38.197Z,33.10
2018-04-12T03:14:38.219Z,34.50
2018-04-12T03:15:38.228Z,34.40
2018-04-12T03:16:38.252Z,33.00
2018-04-12T03:17:38.271Z,32.70
2018-04-12T03:18:38.292Z,33.00
2018-04-12T03:19:38.314Z,31.40
2018-04-12T03:20:38.321Z,32.90
2018-04-12T03:21:38.342Z,32.80
2018-04-12T03:22:38.365Z,32.80
2018-04-12T03:23:38.386Z,32.50
2018-04-12T03:24:38.397Z,33.50
2018-04-12T03:25:38.416Z,34.20
2018-04-12T03:26:38.441Z,32.70
2018-04-12T03:27:38.460Z,33.30
2018-04-12T03:28:38.468Z,33.00
2018-04-12T03:29:38.491Z,32.70
2018-04-12T03:30:38.510Z,33.40
2018-04-12T03:31:38.532Z,33.30
2018-04-12T03:32:38.541Z,33.00
2018-04-12T03:33:38.563Z,34.70
2018-04-12T03:34:38.584Z,33.20
2018-04-12T03:35:38.605Z,33.70
2018-04-12T03:36:38.615Z,33.50
2018-04-12T03:37:38.636Z,32.60
2018-04-12T03:38:38.656Z,34.50
2018-04-12T03:39:38.677Z,32.30
2018-04-12T03:40:38.695Z,32.30
2018-04-12T03:41:38.709Z,33.70
2018-04-12T03:42:38.730Z,34.60
2018-04-12T03:43:38.739Z,33.90
2018-04-12T03:44:38.759Z,35.80
2018-04-12T03:45:38.781Z,34.20
2018-04-12T03:46:38.803Z,35.40
2018-04-12T03:47:38.823Z,34.40
2018-04-12T03:48:38.843Z,34.20
2018-04-12T03:49:38.864Z,35.40
2018-04-12T03:50:38.905Z,34.90
2018-04-12T03:51:38.885Z,36.40
2018-04-12T03:52:38.907Z,35.10
2018-04-12T03:53:38.927Z,34.30
2018-04-12T03:54:38.949Z,34.80
2018-04-12T03:55:38.958Z,34.40
2018-04-12T03:56:38.980Z,34.60
2018-04-12T03:57:39.001Z,34.60
2018-04-12T03:58:39.022Z,34.50
2018-04-12T03:59:39.031Z,35.50
2018-04-12T04:00:39.052Z,35.90
2018-04-12T04:01:39.089Z,35.90
2018-04-12T04:02:39.094Z,33.50
2018-04-12T04:03:39.104Z,33.80
2018-04-12T04:04:39.125Z,34.70
2018-04-12T04:05:39.149Z,34.80
2018-04-12T04:06:39.157Z,34.10
2018-04-12T04:07:39.177Z,35.00
2018-04-12T04:08:39.198Z,35.40
2018-04-12T04:09:39.219Z,34.70
2018-04-12T04:10:39.240Z,34.90
2018-04-12T04:11:39.249Z,34.70
2018-04-12T04:12:39.272Z,35.10
2018-04-12T04:13:39.293Z,34.80
2018-04-12T04:14:39.308Z,35.20
2018-04-12T04:15:39.324Z,35.60
2018-04-12T04:16:39.345Z,35.10
2018-04-12T04:17:39.370Z,36.90
2018-04-12T04:18:39.374Z,35.10
2018-04-12T04:19:39.396Z,34.60
2018-04-12T04:20:39.417Z,36.50
2018-04-12T04:21:39.438Z,35.80
2018-04-12T04:22:39.447Z,37.10
2018-04-12T04:23:39.468Z,35.20
2018-04-12T04:24:39.490Z,35.20
2018-04-12T04:25:39.511Z,34.60
2018-04-12T04:26:39.524Z,36.10
2018-04-12T04:27:39.542Z,35.20
2018-04-12T04:28:39.564Z,35.70
2018-04-12T04:29:39.572Z,36.70
2018-04-12T04:30:39.594Z,35.90
2018-04-12T04:31:39.616Z,35.50
2018-04-12T04:32:39.637Z,34.10
2018-04-12T04:33:39.648Z,33.70
2018-04-12T04:34:39.671Z,35.10
2018-04-12T04:35:39.689Z,34.90
2018-04-12T04:36:39.699Z,34.80
2018-04-12T04:37:39.721Z,35.00
2018-04-12T04:38:39.753Z,35.10
2018-04-12T04:39:39.761Z,36.00
2018-04-12T04:40:39.770Z,34.70
2018-04-12T04:41:39.817Z,34.80
2018-04-12T04:42:39.814Z,35.50
2018-04-12T04:43:39.835Z,35.50
2018-04-12T04:44:39.844Z,35.00
2018-04-12T04:45:39.865Z,36.80
2018-04-12T04:46:39.886Z,35.20
2018-04-12T04:47:39.907Z,34.90
2018-04-12T04:48:39.917Z,35.30
2018-04-12T04:49:39.940Z,35.20
2018-04-12T04:50:39.964Z,35.60
2018-04-12T04:51:39.969Z,36.30
2018-04-12T04:52:39.990Z,34.40
2018-04-12T04:53:40.011Z,37.00
2018-04-12T04:54:40.034Z,36.70
2018-04-12T04:55:40.042Z,35.50
2018-04-12T04:56:40.063Z,35.80
2018-04-12T04:57:40.088Z,35.80
2018-04-12T04:58:40.105Z,35.60
2018-04-12T04:59:40.114Z,35.10
2018-04-12T05:00:40.135Z,35.90
2018-04-12T05:01:40.157Z,36.10
2018-04-12T05:02:40.168Z,36.50
2018-04-12T05:03:40.189Z,36.20
2018-04-12T05:04:40.210Z,35.70
2018-04-12T05:05:40.231Z,36.00
2018-04-12T05:06:40.239Z,36.00
2018-04-12T05:07:40.260Z,34.30
2018-04-12T05:08:40.286Z,34.20
2018-04-12T05:09:40.303Z,35.20
2018-04-12T05:10:40.313Z,35.10
2018-04-12T05:11:40.338Z,34.30
2018-04-12T05:12:40.359Z,35.00
2018-04-12T05:13:40.376Z,34.60
2018-04-12T05:14:40.386Z,33.20
2018-04-12T05:15:40.455Z,33.50
2018-04-12T05:16:40.428Z,34.80
2018-04-12T05:17:40.449Z,33.90
2018-04-12T05:18:40.459Z,32.50
2018-04-12T05:19:40.480Z,33.60
2018-04-12T05:20:40.501Z,32.80
2018-04-12T05:21:40.523Z,33.40
2018-04-12T05:22:40.532Z,32.30
2018-04-12T05:23:40.553Z,34.10
2018-04-12T05:24:40.574Z,33.90
2018-04-12T05:25:40.597Z,35.30
2018-04-12T05:26:40.606Z,31.40
2018-04-12T05:27:40.625Z,33.60
2018-04-12T05:28:40.651Z,33.70
2018-04-12T05:29:40.671Z,34.30
2018-04-12T05:30:40.679Z,32.60
2018-04-12T05:31:40.711Z,31.80
2018-04-12T05:32:40.720Z,34.20
2018-04-12T05:33:40.741Z,33.70
2018-04-12T05:34:40.763Z,33.60
2018-04-12T05:35:40.773Z,33.00
2018-04-12T05:36:40.799Z,32.70
2018-04-12T05:37:40.815Z,33.20
2018-04-12T05:38:40.837Z,33.10
2018-04-12T05:39:40.846Z,32.70
2018-04-12T05:40:40.868Z,33.10
2018-04-12T05:41:40.888Z,31.90
2018-04-12T05:42:40.909Z,34.10
2018-04-12T05:43:40.930Z,32.20
2018-04-12T05:44:40.940Z,33.00
2018-04-12T05:45:40.961Z,32.20
2018-04-12T05:46:40.983Z,32.30
2018-04-12T05:47:41.004Z,32.40
2018-04-12T05:48:41.013Z,31.30
2018-04-12T05:49:41.034Z,32.90
2018-04-12T05:50:41.055Z,32.10
2018-04-12T05:51:41.076Z,31.60
2018-04-12T05:52:41.097Z,31.10
2018-04-12T05:53:41.107Z,31.50
2018-04-12T05:54:41.128Z,32.30
2018-04-12T05:55:41.150Z,29.60
2018-04-12T05:56:41.171Z,30.90
2018-04-12T05:57:41.193Z,32.10
2018-04-12T05:58:41.200Z,31.20
2018-04-12T05:59:41.224Z,31.40
2018-04-12T06:00:41.244Z,30.90
2018-04-12T06:01:41.265Z,30.60
2018-04-12T06:02:41.285Z,31.50
2018-04-12T06:03:41.295Z,30.80
2018-04-12T06:04:41.318Z,29.60
2018-04-12T06:05:41.339Z,29.60
2018-04-12T06:06:41.365Z,29.40
2018-04-12T06:07:41.384Z,29.10
2018-04-12T06:08:41.391Z,29.10
2018-04-12T06:09:41.413Z,29.20
2018-04-12T06:10:41.434Z,29.70
2018-04-12T06:11:41.454Z,29.30
2018-04-12T06:12:41.503Z,29.60
2018-04-12T06:13:41.497Z,29.60
2018-04-12T06:14:41.509Z,31.00
2018-04-12T06:15:41.532Z,31.00
2018-04-12T06:16:41.549Z,28.70
2018-04-12T06:17:41.576Z,28.90
2018-04-12T06:18:41.592Z,28.60
2018-04-12T06:19:41.615Z,26.90
2018-04-12T06:20:41.635Z,27.50
2018-04-12T06:21:41.644Z,26.00
2018-04-12T06:22:41.666Z,27.80
2018-04-12T06:23:41.686Z,28.50
2018-04-12T06:24:41.708Z,28.10
2018-04-12T06:25:41.729Z,28.80
2018-04-12T06:26:41.739Z,26.90
2018-04-12T06:27:41.760Z,27.20
2018-04-12T06:28:41.781Z,28.40
2018-04-12T06:29:41.803Z,27.60
2018-04-12T06:30:41.826Z,27.30
2018-04-12T06:31:41.846Z,27.50
2018-04-12T06:32:41.855Z,27.10
2018-04-12T06:33:41.876Z,26.90
2018-04-12T06:34:41.896Z,26.10
2018-04-12T06:35:41.919Z,26.80
2018-04-12T06:36:41.938Z,26.50
2018-04-12T06:37:41.962Z,26.00
2018-04-12T06:38:41.982Z,25.60
2018-04-12T06:39:42.003Z,24.80
2018-04-12T06:40:42.016Z,25.00
2018-04-12T06:41:42.035Z,24.00
2018-04-12T06:42:42.055Z,25.70
2018-04-12T06:43:42.078Z,25.10
2018-04-12T06:44:42.098Z,24.90
2018-04-12T06:45:42.118Z,24.70
2018-04-12T06:46:42.168Z,24.00
2018-04-12T06:47:42.171Z,24.60
2018-04-12T06:48:42.182Z,24.50
2018-04-12T06:49:42.204Z,23.30
2018-04-12T06:50:42.213Z,25.40
2018-04-12T06:51:42.246Z,24.20
2018-04-12T06:52:42.256Z,23.90
2018-04-12T06:53:42.277Z,24.10
2018-04-12T06:54:42.298Z,23.90
2018-04-12T06:55:42.319Z,25.00
2018-04-12T06:56:42.341Z,25.00
2018-04-12T06:57:42.362Z,25.50
2018-04-12T06:58:42.384Z,24.90
2018-04-12T06:59:42.404Z,25.10
2018-04-12T07:00:42.438Z,25.00
2018-04-12T07:01:42.447Z,24.80
2018-04-12T07:02:42.472Z,23.50
2018-04-12T07:03:42.490Z,24.70
2018-04-12T07:04:42.514Z,26.00
2018-04-12T07:05:42.535Z,25.50
2018-04-12T07:06:42.556Z,24.90
2018-04-12T07:07:42.577Z,24.00
2018-04-12T07:08:42.596Z,24.10
2018-04-12T07:09:42.631Z,24.00
2018-04-12T07:10:42.639Z,24.30
2018-04-12T07:11:42.649Z,23.70
2018-04-12T07:12:42.671Z,23.80
2018-04-12T07:13:42.691Z,23.40
2018-04-12T07:14:42.718Z,23.00
2018-04-12T07:15:42.734Z,22.70
2018-04-12T07:16:42.755Z,23.20
2018-04-12T07:17:42.777Z,22.40
2018-04-12T07:18:42.798Z,23.60
2018-04-12T07:19:42.820Z,22.00
2018-04-12T07:20:42.841Z,22.90
2018-04-12T07:21:42.866Z,22.40
2018-04-12T07:22:42.883Z,22.50
2018-04-12T07:23:42.907Z,22.70
2018-04-12T07:24:42.928Z,23.10
2018-04-12T07:25:42.948Z,23.00
2018-04-12T07:26:42.981Z,22.50
2018-04-12T07:27:42.990Z,21.50
2018-04-12T07:28:43.013Z,20.50
2018-04-12T07:29:43.033Z,21.70
2018-04-12T07:30:43.055Z,22.20
2018-04-12T07:31:43.077Z,22.00
2018-04-12T07:32:43.102Z,21.80
2018-04-12T07:33:43.120Z,20.90
2018-04-12T07:34:43.140Z,21.10
2018-04-12T07:35:43.163Z,20.90
2018-04-12T07:36:43.211Z,21.90
2018-04-12T07:37:43.216Z,21.00
2018-04-12T07:38:43.238Z,20.00
2018-04-12T07:39:43.259Z,21.10
2018-04-12T07:40:43.281Z,19.50
2018-04-12T07:41:43.302Z,20.00
2018-04-12T07:42:43.325Z,19.70
2018-04-12T07:43:43.349Z,19.60
2018-04-12T07:44:43.366Z,20.00
2018-04-12T07:45:43.401Z,20.20
2018-04-12T07:46:43.409Z,19.70
2018-04-12T07:47:43.430Z,19.60
2018-04-12T07:48:43.454Z,19.80
2018-04-12T07:49:43.473Z,18.30
2018-04-12T07:50:43.495Z,19.10
2018-04-12T07:51:43.529Z,21.60
2018-04-12T07:52:43.552Z,20.40
2018-04-12T07:53:43.573Z,19.60
2018-04-12T07:54:43.594Z,17.80
2018-04-12T07:55:43.615Z,20.10
2018-04-12T07:56:43.665Z,18.60
2018-04-12T07:57:43.657Z,19.20
2018-04-12T07:58:43.682Z,18.00
2018-04-12T07:59:43.712Z,17.40
2018-04-12T08:00:43.734Z,18.40
2018-04-12T08:01:43.755Z,18.60
2018-04-12T08:02:43.777Z,17.70
2018-04-12T08:03:43.799Z,18.40
2018-04-12T08:04:43.820Z,18.60
2018-04-12T08:05:43.854Z,17.60
2018-04-12T08:06:43.875Z,18.90
2018-04-12T08:07:43.897Z,18.20
2018-04-12T08:08:43.918Z,18.60
2018-04-12T08:09:43.939Z,19.00
2018-04-12T08:10:43.961Z,18.80
2018-04-12T08:11:43.994Z,18.90
2018-04-12T08:12:44.016Z,18.40
2018-04-12T08:13:44.037Z,18.40
2018-04-12T08:14:44.058Z,18.60
2018-04-12T08:15:44.079Z,19.80
2018-04-12T08:16:44.114Z,17.80
2018-04-12T08:17:44.136Z,17.60
2018-04-12T08:18:44.156Z,18.20
2018-04-12T08:19:44.178Z,17.20
2018-04-12T08:20:44.203Z,18.20
2018-04-12T08:21:44.233Z,18.10
2018-04-12T08:22:44.254Z,17.50
2018-04-12T08:23:44.276Z,18.60
2018-04-12T08:24:44.298Z,18.80
2018-04-12T08:25:44.332Z,17.80
2018-04-12T08:26:44.340Z,17.60
2018-04-12T08:27:44.363Z,17.50
2018-04-12T08:28:44.398Z,18.60
2018-04-12T08:29:44.418Z,17.50
2018-04-12T08:30:44.439Z,17.40
2018-04-12T08:31:44.462Z,16.80
2018-04-12T08:32:44.482Z,17.30
2018-04-12T08:33:44.517Z,17.20
2018-04-12T08:34:44.537Z,17.50
2018-04-12T08:35:44.560Z,17.70
2018-04-12T08:36:44.582Z,17.20
2018-04-12T08:37:44.601Z,17.60
2018-04-12T08:38:44.624Z,17.20
2018-04-12T08:39:44.658Z,17.30
2018-04-12T08:40:44.678Z,17.40
2018-04-12T08:41:44.700Z,17.60
2018-04-12T08:42:44.721Z,18.10
2018-04-12T08:43:44.755Z,16.50
2018-04-12T08:44:44.776Z,16.60
2018-04-12T08:45:44.797Z,15.70
2018-04-12T08:46:44.818Z,16.20
2018-04-12T08:47:44.853Z,16.40
2018-04-12T08:48:44.875Z,15.70
2018-04-12T08:49:44.901Z,16.50
2018-04-12T08:50:44.918Z,16.30
2018-04-12T08:51:44.940Z,16.80
2018-04-12T08:52:44.972Z,16.00
2018-04-12T08:53:44.994Z,16.10
2018-04-12T08:54:45.018Z,16.10
2018-04-12T08:55:45.054Z,15.80
2018-04-12T08:56:45.071Z,16.60
2018-04-12T08:57:45.093Z,16.30
2018-04-12T08:58:45.115Z,16.80
2018-04-12T08:59:45.137Z,17.60
2018-04-12T09:00:45.169Z,16.60
2018-04-12T09:01:45.203Z,17.30
2018-04-12T09:02:45.216Z,15.70
2018-04-12T09:03:45.234Z,16.40
2018-04-12T09:04:45.268Z,15.20
2018-04-12T09:05:45.291Z,15.30
2018-04-12T09:06:45.312Z,15.30
2018-04-12T09:07:45.333Z,15.10
2018-04-12T09:08:45.365Z,15.40
2018-04-12T09:09:45.386Z,15.40
2018-04-12T09:10:45.407Z,14.60
2018-04-12T09:11:45.431Z,14.80
2018-04-12T09:12:45.464Z,15.70
2018-04-12T09:13:45.486Z,14.20
2018-04-12T09:14:45.512Z,14.80
2018-04-12T09:15:45.540Z,14.30
2018-04-12T09:16:45.561Z,14.20
2018-04-12T09:17:45.584Z,15.10
2018-04-12T09:18:45.605Z,14.40
2018-04-12T09:19:45.640Z,14.10
2018-04-12T09:20:45.661Z,13.70
2018-04-12T09:21:45.682Z,14.50
2018-04-12T09:22:45.715Z,14.30
2018-04-12T09:23:45.736Z,14.10
2018-04-12T09:24:45.796Z,15.10
2018-04-12T09:25:45.793Z,16.60
2018-04-12T09:26:45.814Z,13.60
2018-04-12T09:27:45.887Z,14.70
2018-04-12T09:28:45.882Z,14.00
2018-04-12T09:29:45.891Z,13.00
2018-04-12T09:30:45.911Z,13.60
2018-04-12T09:31:45.945Z,13.60
2018-04-12T09:32:45.968Z,13.60
2018-04-12T09:33:45.989Z,13.00
2018-04-12T09:34:46.023Z,12.90
2018-04-12T09:35:46.043Z,12.70
2018-04-12T09:36:46.068Z,12.70
2018-04-12T09:37:46.102Z,13.30
2018-04-12T09:38:46.122Z,12.60
2018-04-12T09:39:46.155Z,13.70
2018-04-12T09:40:46.176Z,12.90
2018-04-12T09:41:46.210Z,12.50
2018-04-12T09:42:46.232Z,12.40
2018-04-12T09:43:46.254Z,12.70
2018-04-12T09:44:46.275Z,13.60
2018-04-12T09:45:46.307Z,13.80
2018-04-12T09:46:46.329Z,13.60
2018-04-12T09:47:46.352Z,13.00
2018-04-12T09:48:46.386Z,13.70
2018-04-12T09:49:46.412Z,12.80
2018-04-12T09:50:46.440Z,13.50
2018-04-12T09:51:46.461Z,12.30
2018-04-12T09:52:46.482Z,13.00
2018-04-12T09:53:46.517Z,12.90
2018-04-12T09:54:46.548Z,12.20
2018-04-12T09:55:46.560Z,11.90
2018-04-12T09:56:46.593Z,12.30
2018-04-12T09:57:46.614Z,12.40
2018-04-12T09:58:46.649Z,12.30
2018-04-12T09:59:46.671Z,12.00
2018-04-12T10:00:46.692Z,12.40
2018-04-12T10:01:46.725Z,11.90
2018-04-12T10:02:46.747Z,11.40
2018-04-12T10:03:46.769Z,11.50
2018-04-12T10:04:46.803Z,12.20
2018-04-12T10:05:46.826Z,12.10
2018-04-12T10:06:46.857Z,12.00
2018-04-12T10:07:46.879Z,11.90
2018-04-12T10:08:46.931Z,12.10
2018-04-12T10:09:46.937Z,12.00
2018-04-12T10:10:46.957Z,11.30
2018-04-12T10:11:46.989Z,11.40
2018-04-12T10:12:47.010Z,11.80
2018-04-12T10:13:47.045Z,12.20
2018-04-12T10:14:47.067Z,13.10
2018-04-12T10:15:47.100Z,12.00
2018-04-12T10:16:47.121Z,13.70
2018-04-12T10:17:47.144Z,10.90
2018-04-12T10:18:47.177Z,12.20
2018-04-12T10:19:47.199Z,12.80
2018-04-12T10:20:47.233Z,12.40
2018-04-12T10:21:47.253Z,13.50
2018-04-12T10:22:47.276Z,13.00
2018-04-12T10:23:47.308Z,13.10
2018-04-12T10:24:47.330Z,13.00
2018-04-12T10:25:47.364Z,13.30
2018-04-12T10:26:47.385Z,13.20
2018-04-12T10:27:47.420Z,12.60
2018-04-12T10:28:47.464Z,12.60
2018-04-12T10:29:47.474Z,12.80
2018-04-12T10:30:47.495Z,12.10
2018-04-12T10:31:47.530Z,12.20
2018-04-12T10:32:47.589Z,11.80
2018-04-12T10:33:47.585Z,12.20
2018-04-12T10:34:47.664Z,11.90
2018-04-12T10:35:47.630Z,13.30
2018-04-12T10:36:47.662Z,10.20
2018-04-12T10:37:47.686Z,10.50
2018-04-12T10:38:47.718Z,9.90
2018-04-12T10:39:47.739Z,9.00
2018-04-12T10:40:47.776Z,9.10
2018-04-12T10:41:47.807Z,9.00
2018-04-12T10:42:47.827Z,9.10
2018-04-12T10:43:47.849Z,9.70
2018-04-12T10:44:47.882Z,9.00
2018-04-12T10:45:47.905Z,8.60
2018-04-12T10:46:47.964Z,9.30
2018-04-12T10:47:47.959Z,8.70
2018-04-12T10:48:47.994Z,8.80
2018-04-12T10:49:48.015Z,8.90
2018-04-12T10:50:48.048Z,8.90
2018-04-12T10:51:48.084Z,8.40
2018-04-12T10:52:48.106Z,8.20
2018-04-12T10:53:48.126Z,8.60
2018-04-12T10:54:48.158Z,8.00
2018-04-12T10:55:48.180Z,8.50
2018-04-12T10:56:48.215Z,8.10
2018-04-12T10:57:48.242Z,8.00
2018-04-12T10:58:48.268Z,8.10
2018-04-12T10:59:48.291Z,8.10
2018-04-12T11:00:48.325Z,7.80
2018-04-12T11:01:48.358Z,7.60
2018-04-12T11:02:48.379Z,7.30
2018-04-12T11:03:48.413Z,7.40
2018-04-12T11:04:48.447Z,7.70
2018-04-12T11:05:48.472Z,7.50
2018-04-12T11:06:48.503Z,7.50
2018-04-12T11:07:48.537Z,8.20
2018-04-12T11:08:48.571Z,7.80
2018-04-12T11:09:48.592Z,8.10
2018-04-12T11:10:48.630Z,7.50
2018-04-12T11:11:48.660Z,7.40
2018-04-12T11:12:48.693Z,7.60
2018-04-12T11:13:48.727Z,7.50
2018-04-12T11:14:48.764Z,8.50
2018-04-12T11:15:48.795Z,7.60
2018-04-12T11:16:48.830Z,7.30
2018-04-12T11:17:48.869Z,7.00
2018-04-12T11:18:48.896Z,7.30
2018-04-12T11:19:48.932Z,6.70
2018-04-12T11:20:48.964Z,6.80
2018-04-12T11:21:48.998Z,6.90
2018-04-12T11:22:49.032Z,6.40
2018-04-12T11:23:49.071Z,6.70
2018-04-12T11:24:49.100Z,6.40
2018-04-12T11:25:49.165Z,5.80
2018-04-12T11:26:49.167Z,6.20
2018-04-12T11:27:49.202Z,6.40
2018-04-12T11:28:49.235Z,6.50
2018-04-12T11:29:49.313Z,6.50
2018-04-12T11:30:49.316Z,6.10
2018-04-12T11:31:49.350Z,6.20
2018-04-12T11:32:49.384Z,5.80
2018-04-12T11:33:49.416Z,6.70
2018-04-12T11:34:49.451Z,6.20
2018-04-12T11:35:49.485Z,6.40
2018-04-12T11:36:49.530Z,6.60
2018-04-12T11:37:49.564Z,6.00
2018-04-12T11:38:49.612Z,6.10
2018-04-12T11:39:49.633Z,6.50
2018-04-12T11:40:49.667Z,5.90
2018-04-12T11:41:49.712Z,5.70
2018-04-12T11:42:49.755Z,6.40
2018-04-12T11:43:49.780Z,6.20
2018-04-12T11:44:49.815Z,5.50
2018-04-12T11:45:49.862Z,5.60
2018-04-12T11:46:49.910Z,6.10
2018-04-12T11:47:49.929Z,5.90
2018-04-12T11:48:49.962Z,5.50
2018-04-12T11:49:50.060Z,5.80
2018-04-12T11:50:50.045Z,6.00
2018-04-12T11:51:50.081Z,5.90
2018-04-12T11:52:50.112Z,5.40
2018-04-12T11:53:50.159Z,5.90
2018-04-12T11:54:50.192Z,6.00
2018-04-12T11:55:50.231Z,6.00
2018-04-12T11:56:50.294Z,5.60
2018-04-12T11:57:50.305Z,5.80
2018-04-12T11:58:50.341Z,6.20
2018-04-12T11:59:50.374Z,5.30
2018-04-12T12:00:50.408Z,5.70
2018-04-12T12:01:50.454Z,6.00
2018-04-12T12:02:50.488Z,5.80
2018-04-12T12:03:50.531Z,5.60
2018-04-12T12:04:50.569Z,5.30
2018-04-12T12:05:50.602Z,5.50
2018-04-12T12:06:50.637Z,6.00
2018-04-12T12:07:50.670Z,5.70
2018-04-12T12:08:50.721Z,5.10
2018-04-12T12:09:50.751Z,5.70
2018-04-12T12:10:50.784Z,4.80
2018-04-12T12:11:50.819Z,5.40
2018-04-12T12:12:50.864Z,5.40
2018-04-12T12:13:50.898Z,5.60
2018-04-12T12:14:50.944Z,5.10
2018-04-12T12:15:50.979Z,5.30
2018-04-12T12:16:51.012Z,5.80
2018-04-12T12:17:51.047Z,5.30
2018-04-12T12:18:51.080Z,5.30
2018-04-12T12:19:51.141Z,5.60
2018-04-12T12:20:51.161Z,5.90
2018-04-12T12:21:51.194Z,5.20
2018-04-12T12:22:51.242Z,6.10
2018-04-12T12:23:51.350Z,5.60
2018-04-12T12:24:51.309Z,5.20
2018-04-12T12:25:51.345Z,5.40
2018-04-12T12:26:51.379Z,5.00
2018-04-12T12:27:51.427Z,5.20
2018-04-12T12:28:51.510Z,5.20
2018-04-12T12:29:51.491Z,5.50
2018-04-12T12:30:51.527Z,4.90
2018-04-12T12:31:51.560Z,5.60
2018-04-12T12:32:51.593Z,5.10
2018-04-12T12:33:51.628Z,5.30
2018-04-12T12:34:51.663Z,5.10
2018-04-12T12:35:51.698Z,5.00
2018-04-12T12:36:51.729Z,4.90
2018-04-12T12:37:51.762Z,4.90
2018-04-12T12:38:51.797Z,5.20
2018-04-12T12:39:51.829Z,5.20
2018-04-12T12:40:51.868Z,5.00
2018-04-12T12:41:51.899Z,5.20
2018-04-12T12:42:51.932Z,5.20
2018-04-12T12:43:52.014Z,5.20
2018-04-12T12:44:51.986Z,4.60
2018-04-12T12:45:52.021Z,5.00
2018-04-12T12:46:52.054Z,5.70
2018-04-12T12:47:52.088Z,5.00
2018-04-12T12:48:52.110Z,4.80
2018-04-12T12:49:52.144Z,4.90
2018-04-12T12:50:52.177Z,5.00
2018-04-12T12:51:52.211Z,5.00
2018-04-12T12:52:52.232Z,4.90
2018-04-12T12:53:52.267Z,4.90
2018-04-12T12:54:52.301Z,5.20
2018-04-12T12:55:52.388Z,4.60
2018-04-12T12:56:52.356Z,5.40
2018-04-12T12:57:52.392Z,7.40